createdAt,value
2022-10-26T00:01:13.295Z,2.20
2022-10-26T00:03:41.421Z,2.42
2022-10-26T00:06:16.959Z,2.17
2022-10-26T00:08:47.088Z,2.10
2022-10-26T00:11:14.968Z,2.03
2022-10-26T00:13:42.459Z,2.55
2022-10-26T00:16:13.660Z,2.53
2022-10-26T00:18:40.580Z,2.30
2022-10-26T00:21:09.236Z,2.45
2022-10-26T00:23:36.149Z,2.43
2022-10-26T00:26:03.197Z,2.30
2022-10-26T00:28:30.253Z,1.95
2022-10-26T00:31:04.331Z,2.05
2022-10-26T00:33:31.458Z,1.80
2022-10-26T00:35:58.307Z,2.50
2022-10-26T00:38:24.986Z,2.40
2022-10-26T00:40:51.634Z,1.92
2022-10-26T00:43:21.196Z,2.08
2022-10-26T00:48:28.057Z,2.47
2022-10-26T00:50:56.769Z,2.10
2022-10-26T00:53:23.481Z,2.33
2022-10-26T00:55:52.483Z,2.03
2022-10-26T00:58:21.536Z,2.13
2022-10-26T01:00:49.665Z,2.22
2022-10-26T01:03:17.406Z,1.90
2022-10-26T01:05:46.274Z,2.15
2022-10-26T01:08:14.149Z,2.00
2022-10-26T01:10:42.652Z,1.90
2022-10-26T01:13:10.527Z,2.30
2022-10-26T01:15:52.321Z,2.63
2022-10-26T01:18:28.447Z,2.20
2022-10-26T01:21:21.517Z,2.17
2022-10-26T01:24:03.931Z,2.30
2022-10-26T01:26:39.427Z,2.10
2022-10-26T01:29:40.664Z,2.13
2022-10-26T01:32:23.449Z,1.88
2022-10-26T01:35:00.962Z,1.92
2022-10-26T01:37:32.411Z,2.50
2022-10-26T01:40:06.203Z,2.00
2022-10-26T01:42:42.144Z,2.40
2022-10-26T01:45:11.411Z,2.22
2022-10-26T01:47:39.538Z,2.00
2022-10-26T01:50:08.250Z,2.00
2022-10-26T01:52:34.751Z,1.85
2022-10-26T01:55:07.125Z,2.45
2022-10-26T01:57:36.269Z,1.90
2022-10-26T02:00:07.759Z,1.80
2022-10-26T02:03:01.881Z,2.20
2022-10-26T02:05:51.484Z,2.10
2022-10-26T02:08:31.073Z,1.90
2022-10-26T02:11:21.646Z,1.92
2022-10-26T02:13:58.662Z,1.88
2022-10-26T02:16:36.967Z,2.40
2022-10-26T02:19:26.323Z,2.00
2022-10-26T02:22:04.266Z,2.05
2022-10-26T02:24:33.430Z,1.90
2022-10-26T02:27:02.746Z,1.77
2022-10-26T02:29:31.007Z,2.38
2022-10-26T02:31:57.979Z,1.90
2022-10-26T02:34:31.495Z,1.85
2022-10-26T02:37:04.383Z,2.22
2022-10-26T02:39:34.503Z,1.77
2022-10-26T02:42:05.279Z,1.75
2022-10-26T02:44:39.759Z,1.90
2022-10-26T02:47:06.324Z,2.10
2022-10-26T02:49:32.823Z,2.08
2022-10-26T02:52:09.186Z,1.95
2022-10-26T02:54:59.303Z,2.00
2022-10-26T02:57:41.400Z,1.90
2022-10-26T03:02:37.145Z,1.80
2022-10-26T03:05:13.054Z,2.20
2022-10-26T03:07:42.046Z,1.92
2022-10-26T03:10:09.119Z,2.40
2022-10-26T03:12:35.623Z,2.10
2022-10-26T03:15:02.624Z,1.98
2022-10-26T03:17:29.239Z,2.10
2022-10-26T03:19:56.181Z,2.40
2022-10-26T03:22:24.364Z,2.20
2022-10-26T03:24:58.355Z,2.30
2022-10-26T03:27:25.040Z,2.30
2022-10-26T03:29:53.880Z,1.80
2022-10-26T03:32:20.450Z,2.25
2022-10-26T03:34:49.359Z,2.00
2022-10-26T03:37:15.924Z,2.40
2022-10-26T03:39:45.850Z,1.63
2022-10-26T03:42:12.387Z,2.28
2022-10-26T03:47:19.445Z,2.28
2022-10-26T03:49:46.110Z,1.98
2022-10-26T03:52:14.839Z,2.00
2022-10-26T03:54:41.401Z,2.47
2022-10-26T03:57:10.128Z,1.92
2022-10-26T03:59:38.905Z,1.92
2022-10-26T04:02:05.425Z,2.38
2022-10-26T04:04:34.999Z,1.80
2022-10-26T04:07:01.587Z,2.03
2022-10-26T04:09:30.753Z,1.92
2022-10-26T04:11:57.194Z,2.22
2022-10-26T04:14:25.009Z,2.08
2022-10-26T04:16:51.491Z,2.03
2022-10-26T04:19:19.067Z,2.40
2022-10-26T04:21:48.086Z,2.10
2022-10-26T04:24:17.331Z,1.90
2022-10-26T04:26:46.242Z,2.15
2022-10-26T04:29:13.702Z,1.83
2022-10-26T04:31:41.341Z,1.88
2022-10-26T04:34:10.985Z,2.08
2022-10-26T04:36:40.274Z,1.88
2022-10-26T04:39:06.779Z,1.95
2022-10-26T04:41:33.235Z,2.15
2022-10-26T04:43:59.834Z,2.20
2022-10-26T04:46:26.313Z,2.13
2022-10-26T04:48:55.593Z,1.75
2022-10-26T04:51:24.657Z,2.10
2022-10-26T04:53:54.326Z,2.35
2022-10-26T04:56:20.834Z,2.35
2022-10-26T04:58:50.333Z,1.73
2022-10-26T05:03:50.632Z,2.42
2022-10-26T05:06:17.300Z,2.33
2022-10-26T05:08:44.832Z,2.28
2022-10-26T05:11:11.378Z,2.13
2022-10-26T05:13:37.896Z,2.10
2022-10-26T05:16:04.663Z,2.30
2022-10-26T05:18:31.292Z,2.15
2022-10-26T05:20:57.864Z,2.20
2022-10-26T05:23:24.470Z,1.95
2022-10-26T05:25:51.171Z,2.25
2022-10-26T05:28:18.828Z,2.08
2022-10-26T05:30:47.379Z,2.17
2022-10-26T05:33:16.461Z,2.80
2022-10-26T05:35:42.975Z,4.95
2022-10-26T05:38:14.486Z,3.00
2022-10-26T05:40:52.144Z,2.33
2022-10-26T05:43:23.254Z,2.10
2022-10-26T05:45:50.991Z,2.13
2022-10-26T05:48:24.040Z,2.35
2022-10-26T05:50:50.749Z,2.15
2022-10-26T05:53:17.416Z,2.63
2022-10-26T05:55:44.844Z,3.30
2022-10-26T05:58:13.342Z,2.80
2022-10-26T06:01:01.636Z,2.90
2022-10-26T06:04:04.731Z,3.88
2022-10-26T06:06:43.999Z,2.70
2022-10-26T06:09:14.970Z,2.17
2022-10-26T06:11:41.856Z,2.60
2022-10-26T06:14:09.884Z,2.65
2022-10-26T06:17:08.819Z,2.50
2022-10-26T06:19:51.886Z,3.13
2022-10-26T06:22:49.851Z,2.92
2022-10-26T06:25:25.896Z,2.90
2022-10-26T06:28:04.486Z,3.00
2022-10-26T06:30:33.595Z,3.00
2022-10-26T06:33:06.722Z,4.15
2022-10-26T06:36:10.623Z,2.92
2022-10-26T06:38:41.364Z,3.50
2022-10-26T06:41:08.267Z,3.80
2022-10-26T06:43:41.988Z,4.10
2022-10-26T06:46:23.678Z,3.90
2022-10-26T06:49:04.712Z,3.90
2022-10-26T06:51:39.218Z,3.15
2022-10-26T06:54:40.150Z,2.97
2022-10-26T06:57:32.501Z,3.00
2022-10-26T07:00:06.612Z,3.20
2022-10-26T07:02:33.281Z,2.80
2022-10-26T07:04:59.818Z,2.83
2022-10-26T07:07:30.986Z,2.83
2022-10-26T07:09:57.594Z,2.47
2022-10-26T07:12:24.079Z,2.42
2022-10-26T07:14:50.635Z,2.63
2022-10-26T07:17:17.430Z,3.08
2022-10-26T07:19:44.842Z,2.90
2022-10-26T07:22:12.175Z,3.65
2022-10-26T07:24:39.910Z,3.20
2022-10-26T07:27:09.187Z,3.65
2022-10-26T07:29:35.797Z,3.22
2022-10-26T07:32:02.966Z,3.92
2022-10-26T07:37:00.053Z,3.33
2022-10-26T07:39:27.036Z,3.20
2022-10-26T07:41:53.956Z,3.10
2022-10-26T07:44:20.533Z,3.67
2022-10-26T07:46:50.079Z,3.30
2022-10-26T07:54:15.173Z,4.45
2022-10-26T07:56:42.062Z,6.68
2022-10-26T07:59:13.121Z,5.80
2022-10-26T08:01:39.733Z,4.63
2022-10-26T08:04:06.172Z,7.20
2022-10-26T08:06:32.614Z,4.90
2022-10-26T08:09:01.324Z,4.32
2022-10-26T08:11:27.762Z,5.03
2022-10-26T08:13:55.250Z,4.50
2022-10-26T08:16:22.550Z,4.43
2022-10-26T08:18:49.757Z,5.18
2022-10-26T08:21:21.605Z,4.28
2022-10-26T08:23:55.933Z,4.23
2022-10-26T08:26:25.422Z,3.88
2022-10-26T08:28:54.191Z,3.47
2022-10-26T08:31:21.102Z,3.30
2022-10-26T08:33:48.691Z,3.67
2022-10-26T08:36:22.769Z,3.85
2022-10-26T08:38:49.345Z,3.97
2022-10-26T08:41:16.242Z,3.75
2022-10-26T08:43:52.114Z,2.63
2022-10-26T08:46:30.454Z,3.40
2022-10-26T08:49:08.740Z,3.72
2022-10-26T08:51:39.785Z,4.10
2022-10-26T08:54:14.756Z,4.85
2022-10-26T08:56:47.282Z,3.00
2022-10-26T08:59:34.438Z,3.03
2022-10-26T09:02:02.660Z,3.60
2022-10-26T09:04:31.560Z,3.25
2022-10-26T09:07:19.732Z,2.63
2022-10-26T09:10:15.459Z,2.72
2022-10-26T09:12:53.432Z,2.80
2022-10-26T09:15:33.290Z,3.65
2022-10-26T09:18:15.008Z,3.42
2022-10-26T09:21:20.502Z,4.05
2022-10-26T09:24:19.210Z,2.97
2022-10-26T09:26:59.453Z,2.97
2022-10-26T09:29:31.928Z,4.03
2022-10-26T09:32:01.318Z,3.20
2022-10-26T09:34:34.078Z,3.05
2022-10-26T09:37:01.153Z,2.97
2022-10-26T09:39:45.349Z,2.75
2022-10-26T09:42:22.352Z,2.88
2022-10-26T09:45:01.262Z,3.28
2022-10-26T09:47:37.980Z,3.47
2022-10-26T09:50:23.209Z,3.08
2022-10-26T09:53:15.867Z,2.63
2022-10-26T09:55:47.108Z,2.75
2022-10-26T09:58:20.788Z,2.40
2022-10-26T10:00:47.562Z,3.05
2022-10-26T10:03:20.236Z,2.42
2022-10-26T10:05:51.694Z,2.38
2022-10-26T10:08:28.884Z,2.75
2022-10-26T10:11:22.286Z,2.38
2022-10-26T10:13:48.915Z,2.30
2022-10-26T10:16:30.106Z,3.00
2022-10-26T10:19:00.840Z,2.35
2022-10-26T10:21:36.366Z,2.70
2022-10-26T10:24:03.000Z,2.15
2022-10-26T10:26:29.516Z,3.03
2022-10-26T10:29:01.146Z,2.47
2022-10-26T10:31:30.482Z,2.70
2022-10-26T10:33:57.026Z,2.90
2022-10-26T10:36:29.618Z,2.58
2022-10-26T10:39:00.185Z,2.97
2022-10-26T10:41:36.522Z,2.70
2022-10-26T10:44:18.652Z,2.75
2022-10-26T10:46:46.485Z,2.65
2022-10-26T10:49:27.663Z,2.75
2022-10-26T10:51:55.715Z,2.67
2022-10-26T10:54:33.827Z,2.72
2022-10-26T10:57:21.558Z,2.45
2022-10-26T10:59:56.835Z,2.03
2022-10-26T11:02:36.278Z,2.90
2022-10-26T11:07:32.289Z,2.28
2022-10-26T11:12:38.830Z,2.58
2022-10-26T11:15:14.271Z,2.13
2022-10-26T11:18:05.128Z,2.38
2022-10-26T11:20:36.574Z,2.17
2022-10-26T11:23:30.698Z,1.73
2022-10-26T11:26:04.624Z,1.60
2022-10-26T11:28:53.623Z,1.38
2022-10-26T11:31:32.339Z,1.30
2022-10-26T11:34:08.280Z,1.60
2022-10-26T11:36:37.538Z,1.20
2022-10-26T11:40:11.572Z,1.35
2022-10-26T11:42:46.332Z,1.52
2022-10-26T11:45:23.163Z,1.10
2022-10-26T11:48:00.186Z,1.42
2022-10-26T11:50:47.203Z,1.23
2022-10-26T11:53:19.757Z,1.40
2022-10-26T11:55:51.696Z,1.60
2022-10-26T11:58:28.345Z,1.38
2022-10-26T12:01:10.651Z,1.30
2022-10-26T12:03:45.430Z,1.10
2022-10-26T12:06:15.193Z,1.20
2022-10-26T12:09:15.960Z,1.30
2022-10-26T12:12:17.823Z,1.45
2022-10-26T12:15:06.019Z,1.30
2022-10-26T12:17:44.625Z,1.30
2022-10-26T12:20:49.766Z,1.40
2022-10-26T12:23:23.328Z,1.38
2022-10-26T12:26:28.686Z,0.95
2022-10-26T12:29:17.076Z,1.25
2022-10-26T12:31:44.041Z,1.20
2022-10-26T12:34:22.059Z,1.38
2022-10-26T12:37:10.893Z,1.20
2022-10-26T12:39:41.291Z,1.73
2022-10-26T12:42:29.805Z,1.38
2022-10-26T12:45:09.731Z,1.25
2022-10-26T12:47:36.346Z,1.50
2022-10-26T12:50:02.986Z,1.50
2022-10-26T12:52:51.631Z,1.50
2022-10-26T12:55:47.885Z,1.10
2022-10-26T12:58:51.947Z,1.15
2022-10-26T13:01:41.762Z,2.03
2022-10-26T13:04:28.229Z,1.15
2022-10-26T13:07:40.040Z,1.00
2022-10-26T13:10:12.388Z,1.10
2022-10-26T13:12:56.109Z,1.05
2022-10-26T13:15:30.281Z,1.20
2022-10-26T13:18:01.010Z,1.25
2022-10-26T13:20:32.951Z,1.05
2022-10-26T13:25:35.212Z,1.17
2022-10-26T13:28:28.638Z,0.80
2022-10-26T13:30:55.106Z,0.90
2022-10-26T13:33:25.823Z,1.27
2022-10-26T13:35:55.259Z,0.98
2022-10-26T13:38:24.160Z,1.00
2022-10-26T13:40:57.298Z,1.30
2022-10-26T13:43:25.658Z,1.00
2022-10-26T13:46:02.391Z,1.00
2022-10-26T13:48:37.552Z,1.40
2022-10-26T13:51:16.436Z,1.30
2022-10-26T13:53:56.009Z,1.10
2022-10-26T13:59:09.650Z,1.02
2022-10-26T14:01:36.434Z,1.00
2022-10-26T14:04:26.600Z,1.02
2022-10-26T14:06:54.616Z,1.17
2022-10-26T14:09:22.391Z,1.15
2022-10-26T14:12:00.814Z,1.20
2022-10-26T14:14:34.953Z,1.08
2022-10-26T14:17:02.418Z,1.10
2022-10-26T14:19:32.649Z,1.30
2022-10-26T14:21:59.558Z,1.23
2022-10-26T14:24:47.009Z,1.52
2022-10-26T14:27:19.692Z,1.20
2022-10-26T14:30:22.222Z,1.60
2022-10-26T14:32:43.186Z,1.15
2022-10-26T14:35:16.279Z,1.00
2022-10-26T14:37:48.954Z,1.15
2022-10-26T14:40:18.762Z,1.20
2022-10-26T14:45:47.171Z,0.98
2022-10-26T14:48:24.150Z,1.10
2022-10-26T14:51:09.874Z,1.10
2022-10-26T14:53:41.327Z,1.00
2022-10-26T14:56:23.447Z,1.05
2022-10-26T14:58:51.097Z,1.23
2022-10-26T15:01:23.656Z,1.30
2022-10-26T15:04:27.846Z,1.27
2022-10-26T15:07:02.530Z,1.10
2022-10-26T15:09:40.637Z,1.23
2022-10-26T15:12:37.451Z,1.02
2022-10-26T15:15:18.637Z,0.80
2022-10-26T15:18:06.252Z,1.40
2022-10-26T15:20:39.610Z,0.82
2022-10-26T15:23:06.231Z,1.10
2022-10-26T15:25:34.662Z,1.10
2022-10-26T15:28:30.729Z,1.38
2022-10-26T15:31:12.496Z,1.00
2022-10-26T15:33:41.867Z,1.00
2022-10-26T15:36:08.264Z,1.20
2022-10-26T15:38:35.461Z,1.30
2022-10-26T15:41:03.898Z,1.23
2022-10-26T15:43:30.487Z,1.52
2022-10-26T15:45:56.941Z,1.50
2022-10-26T15:48:29.025Z,1.10
2022-10-26T15:51:04.980Z,1.40
2022-10-26T15:53:31.454Z,1.10
2022-10-26T15:56:00.412Z,1.60
2022-10-26T15:58:29.440Z,1.08
2022-10-26T16:01:01.219Z,1.48
2022-10-26T16:03:30.550Z,1.67
2022-10-26T16:06:02.567Z,1.50
2022-10-26T16:08:31.345Z,1.30
2022-10-26T16:10:57.930Z,2.03
2022-10-26T16:13:24.473Z,2.30
2022-10-26T16:15:50.913Z,3.20
2022-10-26T16:18:17.389Z,2.53
2022-10-26T16:20:46.059Z,2.70
2022-10-26T16:23:12.717Z,2.40
2022-10-26T16:25:45.372Z,2.30
2022-10-26T16:28:14.254Z,2.53
2022-10-26T16:33:18.395Z,2.65
2022-10-26T16:38:16.739Z,3.10
2022-10-26T16:43:11.488Z,3.20
2022-10-26T16:45:41.683Z,3.20
2022-10-26T16:48:14.216Z,3.60
2022-10-26T16:50:40.825Z,2.90
2022-10-26T16:53:07.316Z,2.85
2022-10-26T16:55:33.919Z,3.10
2022-10-26T16:58:00.558Z,3.10
2022-10-26T17:00:27.010Z,2.88
2022-10-26T17:02:53.503Z,2.80
2022-10-26T17:05:19.953Z,2.80
2022-10-26T17:07:52.093Z,2.90
2022-10-26T17:10:18.864Z,2.30
2022-10-26T17:12:45.354Z,2.20
2022-10-26T17:15:13.779Z,2.50
2022-10-26T17:17:42.477Z,3.25
2022-10-26T17:20:09.430Z,2.10
2022-10-26T17:22:35.891Z,2.00
2022-10-26T17:25:02.281Z,1.98
2022-10-26T17:27:28.737Z,2.78
2022-10-26T17:29:55.212Z,3.00
2022-10-26T17:32:22.736Z,2.72
2022-10-26T17:34:49.504Z,2.20
2022-10-26T17:37:17.107Z,2.40
2022-10-26T17:39:44.772Z,2.83
2022-10-26T17:42:11.283Z,2.20
2022-10-26T17:44:39.021Z,2.55
2022-10-26T17:47:05.543Z,2.40
2022-10-26T17:49:36.257Z,2.25
2022-10-26T17:52:03.514Z,3.38
2022-10-26T17:54:29.962Z,3.90
2022-10-26T17:56:58.663Z,3.53
2022-10-26T17:59:25.264Z,2.50
2022-10-26T18:01:56.117Z,2.53
2022-10-26T18:04:23.926Z,2.60
2022-10-26T18:06:50.427Z,2.33
2022-10-26T18:09:19.497Z,3.33
2022-10-26T18:11:46.134Z,2.92
2022-10-26T18:14:15.010Z,2.95
2022-10-26T18:16:41.415Z,2.78
2022-10-26T18:19:10.278Z,2.60
2022-10-26T18:21:39.879Z,2.78
2022-10-26T18:24:07.664Z,3.13
2022-10-26T18:26:34.958Z,2.75
2022-10-26T18:29:03.472Z,2.45
2022-10-26T18:31:31.878Z,2.35
2022-10-26T18:34:00.396Z,2.58
2022-10-26T18:36:29.322Z,2.53
2022-10-26T18:38:55.942Z,2.35
2022-10-26T18:41:24.525Z,2.50
2022-10-26T18:44:02.214Z,2.55
2022-10-26T18:46:30.707Z,2.47
2022-10-26T18:48:58.831Z,2.70
2022-10-26T18:51:28.911Z,2.63
2022-10-26T18:53:56.534Z,2.40
2022-10-26T18:56:24.863Z,2.65
2022-10-26T18:58:53.799Z,2.20
2022-10-26T19:01:34.830Z,2.80
2022-10-26T19:04:04.695Z,2.65
2022-10-26T19:06:33.764Z,3.50
2022-10-26T19:09:00.735Z,3.72
2022-10-26T19:11:29.117Z,3.60
2022-10-26T19:13:56.270Z,3.60
2022-10-26T19:16:44.629Z,3.40
2022-10-26T19:19:12.303Z,3.72
2022-10-26T19:21:41.066Z,4.22
2022-10-26T19:24:13.415Z,3.72
2022-10-26T19:26:43.421Z,3.55
2022-10-26T19:29:15.514Z,3.20
2022-10-26T19:31:44.248Z,3.10
2022-10-26T19:34:11.805Z,3.22
2022-10-26T19:36:39.524Z,3.58
2022-10-26T19:39:06.809Z,4.25
2022-10-26T19:41:33.318Z,2.80
2022-10-26T19:46:32.651Z,2.78
2022-10-26T19:49:01.828Z,2.60
2022-10-26T19:51:30.040Z,2.80
2022-10-26T19:54:03.336Z,2.78
2022-10-26T19:56:35.429Z,2.42
2022-10-26T19:59:02.054Z,3.17
2022-10-26T20:01:28.726Z,2.47
2022-10-26T20:03:57.474Z,2.60
2022-10-26T20:06:24.336Z,2.80
2022-10-26T20:08:52.407Z,2.95
2022-10-26T20:11:19.069Z,2.47
2022-10-26T20:13:47.260Z,2.97
2022-10-26T20:16:15.662Z,2.55
2022-10-26T20:18:45.825Z,2.78
2022-10-26T20:21:22.215Z,3.30
2022-10-26T20:23:51.010Z,2.83
2022-10-26T20:26:19.587Z,3.05
2022-10-26T20:28:49.216Z,3.03
2022-10-26T20:31:15.811Z,2.80
2022-10-26T20:33:42.582Z,3.08
2022-10-26T20:36:09.224Z,2.90
2022-10-26T20:38:38.602Z,2.78
2022-10-26T20:41:07.927Z,2.85
2022-10-26T20:43:41.081Z,2.70
2022-10-26T20:46:17.132Z,2.80
2022-10-26T20:48:47.878Z,2.95
2022-10-26T20:51:47.596Z,3.00
2022-10-26T20:54:30.959Z,3.25
2022-10-26T20:57:02.087Z,2.40
2022-10-26T20:59:36.665Z,2.70
2022-10-26T21:02:04.297Z,2.85
2022-10-26T21:04:31.035Z,2.70
2022-10-26T21:06:57.581Z,2.60
2022-10-26T21:09:25.386Z,2.83
2022-10-26T21:11:55.916Z,2.85
2022-10-26T21:14:22.415Z,2.50
2022-10-26T21:16:49.227Z,2.70
2022-10-26T21:19:15.722Z,3.05
2022-10-26T21:21:42.407Z,2.67
2022-10-26T21:24:09.012Z,2.63
2022-10-26T21:26:35.587Z,3.30
2022-10-26T21:29:02.210Z,2.78
2022-10-26T21:31:28.915Z,2.63
2022-10-26T21:33:55.634Z,3.03
2022-10-26T21:36:24.855Z,2.80
2022-10-26T21:38:53.850Z,2.97
2022-10-26T21:41:21.524Z,3.47
2022-10-26T21:43:51.395Z,3.35
2022-10-26T21:46:24.730Z,4.05
2022-10-26T21:48:53.748Z,3.97
2022-10-26T21:51:23.268Z,4.15
2022-10-26T21:56:20.133Z,3.60
2022-10-26T21:58:47.216Z,3.53
2022-10-26T22:01:21.813Z,3.33
2022-10-26T22:03:49.034Z,3.60
2022-10-26T22:06:17.558Z,3.05
2022-10-26T22:08:44.616Z,3.05
2022-10-26T22:11:16.012Z,3.22
2022-10-26T22:13:43.977Z,3.50
2022-10-26T22:16:14.087Z,3.50
2022-10-26T22:18:43.924Z,3.40
2022-10-26T22:21:11.161Z,2.95
2022-10-26T22:23:46.650Z,2.83
2022-10-26T22:26:15.984Z,3.08
2022-10-26T22:31:16.176Z,2.97
2022-10-26T22:33:42.841Z,3.03
2022-10-26T22:36:15.315Z,3.85
2022-10-26T22:38:42.305Z,2.70
2022-10-26T22:41:10.225Z,3.28
2022-10-26T22:43:37.322Z,2.83
2022-10-26T22:46:06.886Z,3.13
2022-10-26T22:51:14.386Z,3.22
2022-10-26T22:53:43.606Z,3.22
2022-10-26T22:56:11.844Z,3.10
2022-10-26T22:58:39.301Z,3.20
2022-10-26T23:01:08.605Z,3.17
2022-10-26T23:03:35.513Z,3.53
2022-10-26T23:06:02.523Z,2.92
2022-10-26T23:08:31.471Z,3.28
2022-10-26T23:11:00.013Z,3.47
2022-10-26T23:13:26.678Z,2.90
2022-10-26T23:15:53.449Z,3.03
2022-10-26T23:18:19.970Z,2.72
2022-10-26T23:20:50.919Z,2.90
2022-10-26T23:23:17.915Z,2.63
2022-10-26T23:25:45.413Z,2.72
2022-10-26T23:28:11.940Z,2.97
2022-10-26T23:30:38.423Z,2.92
2022-10-26T23:33:06.064Z,3.10
2022-10-26T23:35:32.728Z,3.00
2022-10-26T23:37:59.829Z,3.03
2022-10-26T23:40:27.378Z,2.42
2022-10-26T23:42:54.064Z,3.10
2022-10-26T23:45:21.019Z,3.40
2022-10-26T23:47:47.735Z,3.22
2022-10-26T23:50:14.663Z,2.85
2022-10-26T23:52:41.476Z,2.88
2022-10-26T23:55:10.455Z,3.00
2022-10-26T23:57:39.537Z,3.03
